Time;durP1;ratioP1;P1;durP2;ratioP2;P2;SDS_P1;SDS_P2;PMS_P1;PMS_P2;Temp;Humidity;BMP_temperature;BMP_pressure;BME280_temperature;BME280_humidity;BME280_pressure;Samples;Min_cycle;Max_cycle;Signal;HPM_P1;HPM_P2
2024/02/14 00:00:33;;;;;;;;;;;;;;;8.26;67.89;99354.33;67832;1278;1016267;-69
2024/02/14 00:03:56;;;;;;;;;;;;;;;8.21;67.98;99356.11;68524;1278;1016156;-70
2024/02/14 00:06:58;;;;;;;;;;;;;;;8.21;68.04;99351.95;68540;1278;1015578;-70
2024/02/14 00:10:01;;;;;;;;;;;;;;;8.19;67.96;99361.23;68532;1278;1015481;-69
2024/02/14 00:13:03;;;;;;;;;;;;;;;8.22;67.85;99357.66;68528;1278;1015900;-70
2024/02/14 00:16:08;;;;;;;;;;;;;;;8.20;68.31;99364.03;68516;1278;1015787;-70
2024/02/14 00:19:10;;;;;;;;;;;;;;;8.17;68.21;99368.50;68541;1278;1015307;-70
2024/02/14 00:22:13;;;;;;;;;;;;;;;8.09;68.45;99369.01;68506;1278;1015486;-69
2024/02/14 00:25:15;;;;;;;;;;;;;;;8.04;68.45;99369.57;68525;1278;1015567;-70
2024/02/14 00:28:18;;;;;;;;;;;;;;;8.10;68.46;99372.42;68533;1278;1015797;-70
2024/02/14 00:31:20;;;;;;;;;;;;;;;8.12;68.36;99375.50;68530;1278;1015448;-70
2024/02/14 00:34:23;;;;;;;;;;;;;;;8.08;68.47;99378.10;68527;1278;1014978;-67
2024/02/14 00:37:29;;;;;;;;;;;;;;;8.12;68.69;99381.06;68511;1278;1015687;-70
2024/02/14 00:40:32;;;;;;;;;;;;;;;8.13;68.36;99383.11;68524;1278;1016138;-70
2024/02/14 00:43:34;;;;;;;;;;;;;;;8.12;68.02;99384.20;68529;1278;1015606;-70
2024/02/14 00:46:37;;;;;;;;;;;;;;;8.13;68.07;99380.13;68534;1278;1016058;-70
2024/02/14 00:49:40;;;;;;;;;;;;;;;8.09;68.66;99380.98;68546;1278;1015741;-68
2024/02/14 00:52:43;;;;;;;;;;;;;;;8.22;67.63;99377.36;68532;1278;1015311;-65
2024/02/14 00:55:45;;;;;;;;;;;;;;;8.21;67.87;99379.66;68535;1278;1014840;-70
2024/02/14 00:58:48;;;;;;;;;;;;;;;8.23;67.82;99380.80;68530;1278;1015426;-70
2024/02/14 01:01:51;;;;;;;;;;;;;;;8.24;67.27;99382.80;68532;1278;1016285;-70
2024/02/14 01:04:54;;;;;;;;;;;;;;;8.18;67.76;99382.20;68536;1278;1015790;-70
2024/02/14 01:07:57;;;;;;;;;;;;;;;8.20;67.66;99379.34;51852;1278;2006580;-70
2024/02/14 01:11:00;;;;;;;;;;;;;;;8.15;67.93;99378.35;51769;1278;2015758;-70
2024/02/14 01:14:04;;;;;;;;;;;;;;;8.13;68.07;99381.54;50328;1278;2006651;-70
2024/02/14 01:17:06;;;;;;;;;;;;;;;8.17;67.32;99387.80;51071;1278;2015380;-71
2024/02/14 01:20:10;;;;;;;;;;;;;;;8.11;68.03;99390.29;50315;1278;2006289;-69
2024/02/14 01:23:13;;;;;;;;;;;;;;;8.13;67.52;99391.11;50234;1278;2015353;-70
2024/02/14 01:26:16;;;;;;;;;;;;;;;8.17;67.87;99389.02;51846;1278;2015983;-70
2024/02/14 01:29:19;;;;;;;;;;;;;;;8.24;67.38;99391.70;50222;1278;2015611;-70
2024/02/14 01:32:22;;;;;;;;;;;;;;;8.26;67.13;99390.21;53372;1278;2014933;-70
2024/02/14 01:35:26;;;;;;;;;;;;;;;8.36;67.25;99387.71;53290;1278;2015809;-70
2024/02/14 01:38:28;;;;;;;;;;;;;;;8.38;67.11;99388.14;51073;1278;2016405;-69
2024/02/14 01:41:32;;;;;;;;;;;;;;;8.32;67.93;99387.20;52597;1278;2015531;-70
2024/02/14 01:44:36;;;;;;;;;;;;;;;8.41;68.04;99388.39;51080;1278;2015978;-70
2024/02/14 01:47:41;;;;;;;;;;;;;;;8.50;68.28;99383.98;53289;1278;2015982;-70
2024/02/14 01:50:43;;;;;;;;;;;;;;;8.65;67.71;99391.88;49484;1278;2006563;-66
2024/02/14 01:53:47;;;;;;;;;;;;;;;8.60;66.90;99383.21;50318;1278;2015953;-70
2024/02/14 01:56:51;;;;;;;;;;;;;;;8.71;67.35;99381.37;51096;1278;2015456;-70
2024/02/14 01:59:55;;;;;;;;;;;;;;;8.79;66.64;99388.98;51824;1278;2006322;-70
2024/02/14 02:02:57;;;;;;;;;;;;;;;8.85;66.89;99392.05;49479;1278;2016128;-70
2024/02/14 02:06:00;;;;;;;;;;;;;;;9.03;66.62;99391.62;50322;1278;2014862;-70
2024/02/14 02:09:03;;;;;;;;;;;;;;;8.85;65.65;99390.84;51778;1278;2006639;-70
2024/02/14 02:12:07;;;;;;;;;;;;;;;8.77;66.88;99388.96;51080;1278;2015506;-70
2024/02/14 02:15:12;;;;;;;;;;;;;;;8.95;66.81;99383.73;52626;1278;2015585;-70
2024/02/14 02:18:15;;;;;;;;;;;;;;;8.96;66.65;99386.00;63171;1278;2016112;-70
2024/02/14 02:21:22;;;;;;;;;;;;;;;8.91;66.80;99383.92;68548;1278;1015363;-70
2024/02/14 02:24:25;;;;;;;;;;;;;;;9.04;66.12;99387.89;68529;1278;1015733;-70
2024/02/14 02:27:28;;;;;;;;;;;;;;;9.06;65.97;99389.55;68539;1278;1015316;-69
2024/02/14 02:30:30;;;;;;;;;;;;;;;9.14;65.91;99393.52;68553;1278;1014983;-70
2024/02/14 02:33:33;;;;;;;;;;;;;;;9.13;65.36;99392.89;68540;1278;1015508;-70
2024/02/14 02:36:35;;;;;;;;;;;;;;;9.09;65.53;99391.64;68550;1278;1015342;-70
2024/02/14 02:39:38;;;;;;;;;;;;;;;9.46;64.53;99399.40;68543;1278;1015792;-70
2024/02/14 02:42:41;;;;;;;;;;;;;;;9.48;64.02;99400.17;68518;1278;1015827;-70
2024/02/14 02:45:44;;;;;;;;;;;;;;;9.40;64.32;99400.18;68538;1278;1015857;-69
2024/02/14 02:48:47;;;;;;;;;;;;;;;9.23;64.77;99400.83;68532;1278;1016400;-70
2024/02/14 02:51:49;;;;;;;;;;;;;;;9.21;64.81;99401.44;68528;1278;1015927;-66
2024/02/14 02:54:52;;;;;;;;;;;;;;;9.17;64.64;99402.31;68553;1278;1015523;-70
2024/02/14 02:57:55;;;;;;;;;;;;;;;9.17;64.67;99404.36;68540;1278;1015676;-70
2024/02/14 03:00:58;;;;;;;;;;;;;;;9.30;64.25;99409.71;68541;1278;1015816;-70
2024/02/14 03:04:00;;;;;;;;;;;;;;;9.35;64.17;99411.59;68519;1278;1016075;-70
2024/02/14 03:07:06;;;;;;;;;;;;;;;9.36;63.82;99411.56;68532;1278;1016197;-70
2024/02/14 03:10:09;;;;;;;;;;;;;;;9.23;64.15;99409.20;68543;1278;1015337;-70
2024/02/14 03:13:11;;;;;;;;;;;;;;;9.24;64.28;99413.48;68529;1278;1015030;-70
2024/02/14 03:16:14;;;;;;;;;;;;;;;9.31;63.73;99413.88;68543;1278;1015778;-70
2024/02/14 03:19:17;;;;;;;;;;;;;;;9.31;63.82;99418.05;68542;1278;1015612;-69
2024/02/14 03:22:19;;;;;;;;;;;;;;;9.30;63.95;99419.17;68544;1278;1015843;-70
2024/02/14 03:25:23;;;;;;;;;;;;;;;9.23;63.86;99419.30;68530;1278;1015314;-69
2024/02/14 03:28:27;;;;;;;;;;;;;;;9.13;63.98;99415.93;68528;1278;1015642;-70
2024/02/14 03:31:30;;;;;;;;;;;;;;;9.11;64.38;99416.55;68540;1278;1015091;-70
2024/02/14 03:34:35;;;;;;;;;;;;;;;9.11;64.29;99411.84;68516;1278;1015622;-70
2024/02/14 03:37:39;;;;;;;;;;;;;;;9.14;64.26;99414.67;68532;1278;1015531;-70
2024/02/14 03:40:42;;;;;;;;;;;;;;;9.04;64.32;99421.20;68513;1278;1016059;-70
2024/02/14 03:43:45;;;;;;;;;;;;;;;9.10;64.34;99423.57;68542;1278;1015438;-70
2024/02/14 03:46:48;;;;;;;;;;;;;;;9.13;63.52;99427.08;68526;1278;1015922;-70
2024/02/14 03:49:51;;;;;;;;;;;;;;;8.93;64.57;99423.63;68512;1278;1015845;-70
2024/02/14 03:52:54;;;;;;;;;;;;;;;9.01;64.54;99427.10;68528;1278;1015240;-60
2024/02/14 03:55:57;;;;;;;;;;;;;;;9.08;64.15;99423.48;68520;1278;1015277;-70
2024/02/14 03:58:59;;;;;;;;;;;;;;;9.08;64.03;99432.05;68539;1278;1015828;-70
2024/02/14 04:02:02;;;;;;;;;;;;;;;9.00;64.02;99428.93;68527;1278;1015416;-70
2024/02/14 04:05:05;;;;;;;;;;;;;;;9.05;64.02;99434.77;68523;1278;1015567;-70
2024/02/14 04:08:09;;;;;;;;;;;;;;;9.06;63.56;99438.58;68510;1278;1015893;-70
2024/02/14 04:11:13;;;;;;;;;;;;;;;9.08;63.81;99441.61;68518;1278;1015389;-70
2024/02/14 04:14:16;;;;;;;;;;;;;;;9.19;63.92;99444.98;68514;1278;1015775;-70
2024/02/14 04:17:19;;;;;;;;;;;;;;;9.13;63.83;99446.95;68525;1278;1015913;-70
2024/02/14 04:20:21;;;;;;;;;;;;;;;9.01;64.01;99444.34;68533;1278;1016694;-70
2024/02/14 04:23:25;;;;;;;;;;;;;;;8.92;64.28;99443.35;68554;1278;1015775;-70
2024/02/14 04:26:27;;;;;;;;;;;;;;;8.83;64.82;99444.10;68530;1278;1015906;-70
2024/02/14 04:29:32;;;;;;;;;;;;;;;8.84;64.25;99446.73;68536;1278;1014877;-70
2024/02/14 04:32:35;;;;;;;;;;;;;;;8.79;64.23;99445.14;68511;1278;1015418;-70
2024/02/14 04:35:38;;;;;;;;;;;;;;;8.80;64.54;99448.08;68533;1278;1016051;-70
2024/02/14 04:38:40;;;;;;;;;;;;;;;8.74;64.51;99447.50;68538;1278;1015423;-70
2024/02/14 04:41:43;;;;;;;;;;;;;;;8.82;63.97;99446.61;68511;1278;1014512;-69
2024/02/14 04:44:45;;;;;;;;;;;;;;;8.86;63.62;99448.86;68524;1278;1015605;-69
2024/02/14 04:47:48;;;;;;;;;;;;;;;8.92;62.97;99451.89;68507;1278;1015619;-70
2024/02/14 04:50:52;;;;;;;;;;;;;;;8.83;63.43;99452.64;68548;1278;1015820;-70
2024/02/14 04:53:58;;;;;;;;;;;;;;;8.80;63.50;99450.36;68531;1278;1015916;-69
2024/02/14 04:57:00;;;;;;;;;;;;;;;8.81;63.21;99451.02;68529;1278;1015734;-70
2024/02/14 05:00:04;;;;;;;;;;;;;;;8.84;63.31;99456.10;68522;1278;1015497;-70
2024/02/14 05:03:07;;;;;;;;;;;;;;;8.78;63.01;99454.26;68532;1278;1016065;-70
2024/02/14 05:06:10;;;;;;;;;;;;;;;8.58;63.16;99459.67;68524;1278;1015874;-70
2024/02/14 05:09:14;;;;;;;;;;;;;;;8.31;64.03;99461.27;68520;1278;1015505;-66
2024/02/14 05:12:17;;;;;;;;;;;;;;;8.23;64.73;99467.52;68512;1278;1016037;-63
2024/02/14 05:15:20;;;;;;;;;;;;;;;8.06;65.02;99462.30;68522;1278;1016109;-70
2024/02/14 05:18:22;;;;;;;;;;;;;;;8.04;65.02;99462.73;68502;1278;1015924;-70
2024/02/14 05:21:25;;;;;;;;;;;;;;;7.98;64.84;99469.77;68525;1278;1015377;-70
2024/02/14 05:24:29;;;;;;;;;;;;;;;7.91;64.86;99470.56;68528;1278;1015834;-70
2024/02/14 05:27:31;;;;;;;;;;;;;;;7.95;64.64;99467.61;68522;1278;1016925;-70
2024/02/14 05:30:36;;;;;;;;;;;;;;;7.97;64.38;99467.36;68536;1278;1016245;-70
2024/02/14 05:33:38;;;;;;;;;;;;;;;7.92;64.36;99469.67;68514;1278;1016007;-70
2024/02/14 05:36:42;;;;;;;;;;;;;;;7.85;64.08;99465.58;68529;1278;1015957;-71
2024/02/14 05:39:44;;;;;;;;;;;;;;;7.82;64.35;99471.25;68518;1278;1015951;-69
2024/02/14 05:42:47;;;;;;;;;;;;;;;7.71;64.58;99468.39;68523;1278;1015267;-70
2024/02/14 05:45:50;;;;;;;;;;;;;;;7.31;65.28;99470.08;68524;1278;1015835;-70
2024/02/14 05:48:53;;;;;;;;;;;;;;;7.23;65.66;99475.74;68508;1278;1016218;-70
2024/02/14 05:51:55;;;;;;;;;;;;;;;7.32;65.53;99477.16;68532;1278;1015678;-69
2024/02/14 05:54:58;;;;;;;;;;;;;;;7.28;65.33;99481.50;68511;1278;1015313;-69
2024/02/14 05:58:00;;;;;;;;;;;;;;;7.32;64.16;99474.71;68529;1278;1015963;-70
2024/02/14 06:01:03;;;;;;;;;;;;;;;7.09;64.39;99480.95;68519;1278;1015272;-70
2024/02/14 06:04:05;;;;;;;;;;;;;;;7.01;64.65;99483.36;68512;1278;1016102;-69
2024/02/14 06:07:10;;;;;;;;;;;;;;;7.02;64.10;99483.13;68511;1278;1015984;-64
2024/02/14 06:10:12;;;;;;;;;;;;;;;7.08;63.86;99491.42;68495;1278;1015686;-70
2024/02/14 06:13:16;;;;;;;;;;;;;;;6.94;64.03;99496.98;68541;1278;1016081;-71
2024/02/14 06:16:18;;;;;;;;;;;;;;;6.86;64.06;99499.52;68485;1278;1015050;-71
2024/02/14 06:19:22;;;;;;;;;;;;;;;6.76;64.44;99501.05;68506;1278;1015801;-70
2024/02/14 06:22:25;;;;;;;;;;;;;;;6.82;64.00;99505.59;68518;1278;1015249;-70
2024/02/14 06:25:27;;;;;;;;;;;;;;;6.83;63.81;99509.20;68503;1278;1016399;-70
2024/02/14 06:28:30;;;;;;;;;;;;;;;6.85;63.79;99509.11;68511;1278;1015432;-70
2024/02/14 06:31:32;;;;;;;;;;;;;;;6.88;63.93;99511.97;68510;1278;1016089;-70
2024/02/14 06:34:35;;;;;;;;;;;;;;;7.00;63.56;99519.04;68517;1278;1015609;-71
2024/02/14 06:37:37;;;;;;;;;;;;;;;7.04;63.45;99516.80;68507;1278;1015991;-70
2024/02/14 06:40:40;;;;;;;;;;;;;;;7.20;63.16;99513.80;68494;1278;1015777;-70
2024/02/14 06:43:43;;;;;;;;;;;;;;;7.26;62.73;99511.64;68511;1278;1015345;-70
2024/02/14 06:46:45;;;;;;;;;;;;;;;7.21;62.76;99507.99;68500;1278;1015496;-70
2024/02/14 06:49:48;;;;;;;;;;;;;;;7.34;63.01;99509.27;68506;1278;1015482;-69
2024/02/14 06:52:51;;;;;;;;;;;;;;;7.36;63.05;99510.09;68515;1278;1016040;-69
2024/02/14 06:55:53;;;;;;;;;;;;;;;7.62;62.72;99509.97;68499;1278;1017284;-70
2024/02/14 06:58:59;;;;;;;;;;;;;;;7.99;61.78;99511.52;68501;1278;1015813;-64
2024/02/14 07:02:02;;;;;;;;;;;;;;;7.94;62.59;99516.59;68511;1278;1015328;-69
2024/02/14 07:05:07;;;;;;;;;;;;;;;8.03;63.04;99519.56;68496;1278;1015272;-70
2024/02/14 07:08:09;;;;;;;;;;;;;;;8.22;63.13;99520.69;68492;1278;1015553;-70
2024/02/14 07:11:13;;;;;;;;;;;;;;;8.53;62.42;99524.56;68506;1278;1015212;-70
2024/02/14 07:14:15;;;;;;;;;;;;;;;8.66;62.37;99521.92;68512;1278;1015733;-70
2024/02/14 07:17:18;;;;;;;;;;;;;;;8.75;63.37;99522.96;68508;1278;1015725;-70
2024/02/14 07:20:20;;;;;;;;;;;;;;;8.86;63.55;99523.88;68504;1278;1014177;-69
2024/02/14 07:23:23;;;;;;;;;;;;;;;8.98;63.90;99526.12;68489;1278;1015259;-70
2024/02/14 07:26:26;;;;;;;;;;;;;;;9.33;63.51;99522.54;68496;1278;1015363;-70
2024/02/14 07:29:28;;;;;;;;;;;;;;;9.64;62.32;99524.44;68493;1278;1015330;-68
2024/02/14 07:32:31;;;;;;;;;;;;;;;9.68;62.21;99516.75;68505;1278;1015275;-70
2024/02/14 07:35:33;;;;;;;;;;;;;;;9.69;61.94;99513.92;68509;1278;1015974;-71
2024/02/14 07:38:36;;;;;;;;;;;;;;;9.77;62.31;99514.94;68519;1278;1015737;-70
2024/02/14 07:41:38;;;;;;;;;;;;;;;10.02;62.62;99514.98;68506;1278;1015278;-68
2024/02/14 07:44:41;;;;;;;;;;;;;;;10.18;62.07;99517.35;68500;1278;1015298;-70
2024/02/14 07:47:44;;;;;;;;;;;;;;;10.49;61.80;99515.01;68509;1278;1015279;-69
2024/02/14 07:50:46;;;;;;;;;;;;;;;10.77;61.87;99516.61;68507;1278;1015694;-70
2024/02/14 07:53:50;;;;;;;;;;;;;;;11.01;60.78;99517.30;68485;1278;1014417;-70
2024/02/14 07:56:52;;;;;;;;;;;;;;;11.31;60.24;99511.71;68491;1278;1014927;-70
2024/02/14 07:59:56;;;;;;;;;;;;;;;11.46;60.07;99510.05;68470;1278;1016126;-70
2024/02/14 08:02:59;;;;;;;;;;;;;;;11.58;59.43;99501.52;65911;1278;6368219;-69
2024/02/14 08:06:10;;;;;;;;;;;;;;;11.73;59.44;99501.58;68459;1278;1016247;-70
2024/02/14 08:09:12;;;;;;;;;;;;;;;11.97;59.17;99501.89;68486;1278;1015649;-70
2024/02/14 08:12:15;;;;;;;;;;;;;;;12.19;58.32;99505.05;68503;1278;1014716;-66
2024/02/14 08:15:17;;;;;;;;;;;;;;;12.39;57.43;99501.25;68495;1278;1015284;-70
2024/02/14 08:18:20;;;;;;;;;;;;;;;12.47;55.79;99498.36;68467;1278;1015906;-70
2024/02/14 08:21:22;;;;;;;;;;;;;;;12.52;56.51;99499.48;68503;1278;1015247;-69
2024/02/14 08:24:25;;;;;;;;;;;;;;;12.77;55.89;99503.09;68488;1278;1015730;-70
2024/02/14 08:27:28;;;;;;;;;;;;;;;12.65;54.70;99510.27;68478;1278;1015181;-70
2024/02/14 08:30:30;;;;;;;;;;;;;;;12.68;54.80;99506.23;68501;1278;1015406;-69
2024/02/14 08:33:33;;;;;;;;;;;;;;;12.67;55.33;99509.45;68485;1278;1014353;-70
2024/02/14 08:36:40;;;;;;;;;;;;;;;12.78;51.96;99511.81;68481;1278;1015389;-69
2024/02/14 08:39:43;;;;;;;;;;;;;;;12.54;52.24;99510.02;68497;1278;1015872;-70
2024/02/14 08:42:45;;;;;;;;;;;;;;;12.48;54.35;99508.95;68475;1278;1014792;-69
2024/02/14 08:45:48;;;;;;;;;;;;;;;12.50;52.07;99505.52;68463;1279;1016190;-69
2024/02/14 08:48:51;;;;;;;;;;;;;;;12.61;53.54;99509.27;68494;1278;1015081;-69
2024/02/14 08:51:54;;;;;;;;;;;;;;;12.65;52.82;99506.59;68489;1278;1015253;-68
2024/02/14 08:54:57;;;;;;;;;;;;;;;12.53;52.56;99510.27;68491;1278;1015478;-69
2024/02/14 08:57:59;;;;;;;;;;;;;;;12.52;53.61;99509.66;68491;1278;1015453;-70
2024/02/14 09:01:02;;;;;;;;;;;;;;;12.83;52.82;99506.08;68483;1279;1015634;-69
2024/02/14 09:04:05;;;;;;;;;;;;;;;12.90;52.06;99506.02;68486;1278;1015731;-69
2024/02/14 09:07:07;;;;;;;;;;;;;;;12.92;51.86;99501.65;68476;1278;1016042;-69
2024/02/14 09:10:12;;;;;;;;;;;;;;;13.04;51.67;99500.27;68506;1278;1015848;-69
2024/02/14 09:13:14;;;;;;;;;;;;;;;13.19;51.83;99496.16;68477;1278;1016031;-69
2024/02/14 09:16:17;;;;;;;;;;;;;;;13.46;51.27;99496.50;68476;1278;1015358;-70
2024/02/14 09:19:19;;;;;;;;;;;;;;;13.48;50.16;99495.14;68471;1278;1016078;-69
2024/02/14 09:22:22;;;;;;;;;;;;;;;13.40;48.45;99494.55;68471;1278;1016133;-69
2024/02/14 09:25:25;;;;;;;;;;;;;;;13.28;49.93;99491.59;68484;1278;1015271;-69
2024/02/14 09:28:27;;;;;;;;;;;;;;;13.03;47.54;99494.17;68493;1278;1015871;-69
2024/02/14 09:31:30;;;;;;;;;;;;;;;13.01;49.19;99484.98;68475;1278;1015442;-69
2024/02/14 09:34:32;;;;;;;;;;;;;;;13.12;48.65;99487.44;68486;1278;1015967;-69
2024/02/14 09:37:35;;;;;;;;;;;;;;;13.23;49.15;99495.23;68483;1278;1015772;-68
2024/02/14 09:40:37;;;;;;;;;;;;;;;13.23;47.97;99487.33;68468;1278;1015352;-68
2024/02/14 09:43:41;;;;;;;;;;;;;;;13.32;49.25;99491.02;68480;1278;1015508;-67
2024/02/14 09:46:45;;;;;;;;;;;;;;;13.42;48.49;99489.70;68485;1278;1016199;-69
2024/02/14 09:49:47;;;;;;;;;;;;;;;13.54;47.06;99491.08;68472;1278;1015334;-69
2024/02/14 09:52:50;;;;;;;;;;;;;;;13.46;47.14;99499.52;68487;1278;1016473;-69
2024/02/14 09:55:52;;;;;;;;;;;;;;;13.27;45.61;99493.25;68486;1278;1015953;-69
2024/02/14 09:58:56;;;;;;;;;;;;;;;13.23;48.23;99496.08;68485;1279;1016328;-68
2024/02/14 10:01:59;;;;;;;;;;;;;;;13.49;47.09;99499.48;68503;1279;1015835;-69
2024/02/14 10:05:02;;;;;;;;;;;;;;;13.41;45.54;99501.88;68492;1278;1016161;-69
2024/02/14 10:08:04;;;;;;;;;;;;;;;13.52;46.46;99501.41;68476;1278;1016260;-69
2024/02/14 10:11:07;;;;;;;;;;;;;;;13.41;45.03;99500.50;68479;1278;1015681;-69
2024/02/14 10:14:13;;;;;;;;;;;;;;;13.37;46.46;99499.64;68486;1279;1015896;-68
2024/02/14 10:17:15;;;;;;;;;;;;;;;13.38;45.53;99498.00;68478;1278;1015688;-69
2024/02/14 10:20:18;;;;;;;;;;;;;;;13.33;45.56;99491.67;68490;1278;1015768;-69
2024/02/14 10:23:20;;;;;;;;;;;;;;;13.17;45.35;99490.15;68449;1278;1015952;-65
2024/02/14 10:26:23;;;;;;;;;;;;;;;13.39;47.07;99493.42;68493;1278;1014817;-68
2024/02/14 10:29:26;;;;;;;;;;;;;;;13.79;47.00;99481.60;68466;1279;1015734;-69
2024/02/14 10:32:29;;;;;;;;;;;;;;;14.04;45.78;99478.73;68497;1279;1015741;-68
2024/02/14 10:35:31;;;;;;;;;;;;;;;14.05;45.76;99473.43;68478;1278;1016577;-69
2024/02/14 10:38:34;;;;;;;;;;;;;;;14.06;45.95;99471.41;68473;1278;1015799;-69
2024/02/14 10:41:37;;;;;;;;;;;;;;;14.08;45.38;99466.70;68493;1278;1015869;-68
2024/02/14 10:44:39;;;;;;;;;;;;;;;14.21;45.64;99464.13;68488;1278;1015827;-68
2024/02/14 10:47:42;;;;;;;;;;;;;;;14.41;45.41;99462.64;68499;1279;1016096;-69
2024/02/14 10:50:44;;;;;;;;;;;;;;;14.25;44.95;99460.19;68469;1278;1015957;-63
2024/02/14 10:53:47;;;;;;;;;;;;;;;14.18;44.29;99456.72;68485;1279;1014565;-69
2024/02/14 10:56:49;;;;;;;;;;;;;;;14.04;44.72;99454.67;68497;1278;1014302;-69
2024/02/14 10:59:52;;;;;;;;;;;;;;;14.00;44.63;99450.38;68478;1278;1015875;-69
2024/02/14 11:02:55;;;;;;;;;;;;;;;13.81;44.43;99452.08;68486;1278;1015320;-61
2024/02/14 11:06:02;;;;;;;;;;;;;;;13.72;45.30;99447.42;68492;1278;1015499;-69
2024/02/14 11:09:07;;;;;;;;;;;;;;;13.58;45.18;99447.96;68486;1278;1015520;-69
2024/02/14 11:12:10;;;;;;;;;;;;;;;13.64;45.66;99446.00;68503;1278;1015556;-69
2024/02/14 11:15:13;;;;;;;;;;;;;;;13.70;44.95;99443.31;68480;1278;1015939;-70
2024/02/14 11:18:16;;;;;;;;;;;;;;;13.49;43.68;99440.45;68493;1278;1015322;-69
2024/02/14 11:21:18;;;;;;;;;;;;;;;13.19;44.75;99439.31;68481;1278;1014900;-69
2024/02/14 11:24:21;;;;;;;;;;;;;;;13.12;44.60;99436.02;68477;1278;1015949;-69
2024/02/14 11:27:24;;;;;;;;;;;;;;;12.83;43.83;99435.70;68477;1278;1015920;-69
2024/02/14 11:30:27;;;;;;;;;;;;;;;12.72;45.64;99434.74;68492;1278;1015598;-69
2024/02/14 11:33:29;;;;;;;;;;;;;;;12.77;44.50;99432.17;68499;1278;1016041;-69
2024/02/14 11:36:32;;;;;;;;;;;;;;;12.74;45.29;99427.60;68486;1279;1015523;-69
2024/02/14 11:39:34;;;;;;;;;;;;;;;12.73;44.62;99425.25;68485;1278;1015181;-69
2024/02/14 11:42:37;;;;;;;;;;;;;;;12.69;44.99;99425.67;68493;1278;1015475;-69
2024/02/14 11:45:41;;;;;;;;;;;;;;;12.83;44.96;99421.84;68498;1278;1015687;-69
2024/02/14 11:48:45;;;;;;;;;;;;;;;13.25;43.36;99418.02;68480;1278;1015595;-69
2024/02/14 11:51:48;;;;;;;;;;;;;;;13.47;42.91;99418.64;68491;1278;1016091;-69
2024/02/14 11:54:51;;;;;;;;;;;;;;;13.90;43.69;99412.14;68486;1278;1015842;-69
2024/02/14 11:57:54;;;;;;;;;;;;;;;14.17;43.44;99410.93;68496;1279;1015747;-69
2024/02/14 12:00:56;;;;;;;;;;;;;;;14.44;43.50;99408.94;68485;1278;1015706;-65
2024/02/14 12:04:00;;;;;;;;;;;;;;;14.79;43.26;99409.23;68485;1278;1015893;-69
2024/02/14 12:07:04;;;;;;;;;;;;;;;15.23;42.19;99405.97;68515;1278;1015439;-69
2024/02/14 12:10:06;;;;;;;;;;;;;;;15.40;42.62;99407.41;68499;1278;1015375;-69
2024/02/14 12:13:09;;;;;;;;;;;;;;;15.58;41.85;99404.88;68506;1278;1016003;-69
2024/02/14 12:16:12;;;;;;;;;;;;;;;15.40;41.86;99402.16;68491;1278;1015826;-69
2024/02/14 12:19:15;;;;;;;;;;;;;;;15.30;42.15;99404.09;68493;1278;1015452;-69
2024/02/14 12:22:19;;;;;;;;;;;;;;;15.07;41.06;99401.31;68526;1279;1015785;-69
2024/02/14 12:25:22;;;;;;;;;;;;;;;14.82;42.34;99403.22;68491;1278;1016603;-69
2024/02/14 12:28:24;;;;;;;;;;;;;;;14.80;42.87;99393.70;68503;1278;1015467;-69
2024/02/14 12:31:27;;;;;;;;;;;;;;;14.80;42.60;99391.05;68481;1278;1015319;-69
2024/02/14 12:34:29;;;;;;;;;;;;;;;14.92;43.10;99385.82;68495;1278;1015920;-69
2024/02/14 12:37:32;;;;;;;;;;;;;;;14.96;41.56;99391.15;68499;1279;1015313;-69
2024/02/14 12:40:34;;;;;;;;;;;;;;;14.78;42.21;99383.94;68512;1278;1016139;-66
2024/02/14 12:43:37;;;;;;;;;;;;;;;14.94;42.21;99383.58;68494;1278;1015369;-69
2024/02/14 12:46:39;;;;;;;;;;;;;;;15.20;41.44;99383.86;68508;1278;1015929;-69
2024/02/14 12:49:43;;;;;;;;;;;;;;;15.43;41.80;99379.05;68508;1278;1015760;-69
2024/02/14 12:52:46;;;;;;;;;;;;;;;15.43;40.73;99378.64;68511;1278;1016351;-69
2024/02/14 12:55:49;;;;;;;;;;;;;;;15.21;40.48;99376.36;68501;1278;1016098;-69
2024/02/14 12:58:51;;;;;;;;;;;;;;;14.88;39.71;99382.02;68505;1278;1015676;-69
2024/02/14 13:01:54;;;;;;;;;;;;;;;14.69;40.25;99383.00;68502;1278;1015819;-69
2024/02/14 13:04:56;;;;;;;;;;;;;;;14.52;39.97;99382.14;68501;1278;1016104;-69
2024/02/14 13:08:00;;;;;;;;;;;;;;;14.39;40.41;99385.50;68487;1278;1015613;-69
2024/02/14 13:11:03;;;;;;;;;;;;;;;14.64;40.61;99380.88;68506;1278;1016242;-70
2024/02/14 13:14:05;;;;;;;;;;;;;;;14.81;41.19;99378.48;68509;1278;1015502;-69
2024/02/14 13:17:09;;;;;;;;;;;;;;;15.05;40.96;99370.09;68507;1278;1015943;-70
2024/02/14 13:20:11;;;;;;;;;;;;;;;15.28;40.85;99367.76;68504;1278;1015724;-69
2024/02/14 13:23:14;;;;;;;;;;;;;;;15.50;40.73;99363.52;68518;1278;1016106;-69
2024/02/14 13:26:17;;;;;;;;;;;;;;;15.44;38.59;99362.90;68524;1279;1015443;-69
2024/02/14 13:29:19;;;;;;;;;;;;;;;14.97;39.57;99361.48;68521;1278;1015746;-69
2024/02/14 13:32:22;;;;;;;;;;;;;;;14.71;39.01;99364.04;68502;1278;1016398;-69
2024/02/14 13:35:25;;;;;;;;;;;;;;;14.66;40.32;99367.88;68513;1278;1016018;-69
2024/02/14 13:38:28;;;;;;;;;;;;;;;14.87;40.35;99367.25;68493;1278;1015541;-70
2024/02/14 13:41:31;;;;;;;;;;;;;;;14.97;40.71;99363.62;68494;1278;1015427;-69
2024/02/14 13:44:34;;;;;;;;;;;;;;;15.13;41.08;99360.73;68514;1278;1015971;-69
2024/02/14 13:47:38;;;;;;;;;;;;;;;15.50;41.00;99357.86;68512;1278;1015799;-69
2024/02/14 13:50:41;;;;;;;;;;;;;;;15.85;40.40;99351.80;68508;1278;1015816;-69
2024/02/14 13:53:44;;;;;;;;;;;;;;;15.91;40.04;99355.27;68515;1278;1016034;-69
2024/02/14 13:56:48;;;;;;;;;;;;;;;15.92;39.55;99351.66;68508;1278;1015504;-69
2024/02/14 13:59:50;;;;;;;;;;;;;;;15.81;39.79;99346.11;68522;1278;1015061;-69
2024/02/14 14:02:53;;;;;;;;;;;;;;;15.68;39.88;99350.21;68509;1278;1015512;-69
2024/02/14 14:05:56;;;;;;;;;;;;;;;15.81;40.07;99348.04;68523;1278;1015556;-69
2024/02/14 14:09:00;;;;;;;;;;;;;;;15.69;39.75;99348.59;68519;1278;1016257;-69
2024/02/14 14:12:02;;;;;;;;;;;;;;;15.52;40.31;99346.44;68510;1278;1016186;-68
2024/02/14 14:15:05;;;;;;;;;;;;;;;15.68;40.04;99344.60;68519;1278;1016010;-69
2024/02/14 14:18:08;;;;;;;;;;;;;;;15.68;40.32;99346.75;68525;1278;1015362;-69
2024/02/14 14:21:11;;;;;;;;;;;;;;;15.72;40.28;99347.52;68503;1278;1016958;-69
2024/02/14 14:24:14;;;;;;;;;;;;;;;15.66;40.04;99347.05;68515;1278;1015298;-69
2024/02/14 14:27:17;;;;;;;;;;;;;;;15.51;39.61;99349.15;68513;1278;1015514;-69
2024/02/14 14:30:19;;;;;;;;;;;;;;;15.30;40.04;99347.55;68513;1278;1015412;-69
2024/02/14 14:33:22;;;;;;;;;;;;;;;15.15;40.25;99354.06;68535;1278;1015312;-69
2024/02/14 14:36:25;;;;;;;;;;;;;;;15.13;40.63;99344.86;68535;1278;1015302;-69
2024/02/14 14:39:28;;;;;;;;;;;;;;;15.30;40.43;99345.05;68521;1278;1015964;-69
2024/02/14 14:42:30;;;;;;;;;;;;;;;15.15;40.63;99342.06;68519;1278;1015706;-69
2024/02/14 14:45:33;;;;;;;;;;;;;;;15.08;40.95;99343.66;68525;1278;1014965;-69
2024/02/14 14:48:36;;;;;;;;;;;;;;;15.12;40.25;99340.73;68521;1278;1014818;-69
2024/02/14 14:51:38;;;;;;;;;;;;;;;14.94;40.20;99344.45;68525;1278;1015694;-69
2024/02/14 14:54:41;;;;;;;;;;;;;;;14.85;40.56;99345.60;68523;1278;1015407;-69
2024/02/14 14:57:43;;;;;;;;;;;;;;;14.71;40.73;99353.29;68536;1278;1015506;-69
2024/02/14 15:00:46;;;;;;;;;;;;;;;14.67;40.87;99355.30;68514;1278;1016099;-69
2024/02/14 15:03:48;;;;;;;;;;;;;;;14.52;41.05;99357.16;68528;1278;1016169;-69
2024/02/14 15:06:52;;;;;;;;;;;;;;;14.48;41.06;99355.02;68520;1278;1015494;-69
2024/02/14 15:09:55;;;;;;;;;;;;;;;14.23;41.49;99353.84;68525;1278;1016331;-69
2024/02/14 15:12:58;;;;;;;;;;;;;;;14.07;41.92;99360.07;68519;1278;1015619;-69
2024/02/14 15:16:03;;;;;;;;;;;;;;;14.06;41.89;99362.23;68525;1278;1015095;-69
2024/02/14 15:19:06;;;;;;;;;;;;;;;13.94;42.01;99357.78;68528;1278;1016051;-70
2024/02/14 15:22:09;;;;;;;;;;;;;;;13.83;42.44;99356.38;68530;1278;1015792;-69
2024/02/14 15:25:11;;;;;;;;;;;;;;;13.82;42.50;99354.50;68519;1278;1016163;-70
2024/02/14 15:28:21;;;;;;;;;;;;;;;13.74;42.50;99347.80;68532;1278;1015508;-70
2024/02/14 15:34:45;;;;;;;;;;;;;;;13.68;42.80;99343.63;68536;1278;1015520;-70